sensor_id;sensor_type;location;lat;lon;timestamp;temperature;humidity
12426;DHT22;6277;49.824;9.562;2022-08-25T00:00:47;23.20;44.40
12426;DHT22;6277;49.824;9.562;2022-08-25T00:03:12;23.20;44.50
12426;DHT22;6277;49.824;9.562;2022-08-25T00:05:38;23.20;44.60
12426;DHT22;6277;49.824;9.562;2022-08-25T00:08:05;23.20;44.70
12426;DHT22;6277;49.824;9.562;2022-08-25T00:10:32;23.10;44.80
12426;DHT22;6277;49.824;9.562;2022-08-25T00:12:59;23.10;45.00
12426;DHT22;6277;49.824;9.562;2022-08-25T00:15:25;23.10;45.00
12426;DHT22;6277;49.824;9.562;2022-08-25T00:17:51;23.10;45.20
12426;DHT22;6277;49.824;9.562;2022-08-25T00:20:17;23.10;45.30
12426;DHT22;6277;49.824;9.562;2022-08-25T00:22:42;23.10;45.30
12426;DHT22;6277;49.824;9.562;2022-08-25T00:25:09;23.00;45.30
12426;DHT22;6277;49.824;9.562;2022-08-25T00:27:37;23.00;45.30
12426;DHT22;6277;49.824;9.562;2022-08-25T00:30:04;23.00;45.60
12426;DHT22;6277;49.824;9.562;2022-08-25T00:32:30;23.00;45.60
12426;DHT22;6277;49.824;9.562;2022-08-25T00:34:56;22.90;45.60
12426;DHT22;6277;49.824;9.562;2022-08-25T00:37:21;22.90;45.60
12426;DHT22;6277;49.824;9.562;2022-08-25T00:39:47;22.90;45.90
12426;DHT22;6277;49.824;9.562;2022-08-25T00:42:12;22.80;45.80
12426;DHT22;6277;49.824;9.562;2022-08-25T00:44:39;22.80;45.90
12426;DHT22;6277;49.824;9.562;2022-08-25T00:47:05;22.70;45.80
12426;DHT22;6277;49.824;9.562;2022-08-25T00:49:41;22.70;45.90
12426;DHT22;6277;49.824;9.562;2022-08-25T00:52:14;22.60;46.20
12426;DHT22;6277;49.824;9.562;2022-08-25T00:54:46;22.60;46.30
12426;DHT22;6277;49.824;9.562;2022-08-25T00:57:16;22.50;46.30
12426;DHT22;6277;49.824;9.562;2022-08-25T00:59:42;22.50;46.10
12426;DHT22;6277;49.824;9.562;2022-08-25T01:02:09;22.40;46.00
12426;DHT22;6277;49.824;9.562;2022-08-25T01:04:35;22.30;46.00
12426;DHT22;6277;49.824;9.562;2022-08-25T01:07:02;22.30;46.30
12426;DHT22;6277;49.824;9.562;2022-08-25T01:09:30;22.30;46.40
12426;DHT22;6277;49.824;9.562;2022-08-25T01:11:57;22.20;46.80
12426;DHT22;6277;49.824;9.562;2022-08-25T01:14:24;22.10;46.70
12426;DHT22;6277;49.824;9.562;2022-08-25T01:16:50;22.10;46.90
12426;DHT22;6277;49.824;9.562;2022-08-25T01:19:17;22.00;47.00
12426;DHT22;6277;49.824;9.562;2022-08-25T01:21:46;22.00;47.20
12426;DHT22;6277;49.824;9.562;2022-08-25T01:26:51;21.90;48.10
12426;DHT22;6277;49.824;9.562;2022-08-25T01:29:17;21.90;47.70
12426;DHT22;6277;49.824;9.562;2022-08-25T01:31:50;21.80;47.90
12426;DHT22;6277;49.824;9.562;2022-08-25T01:34:18;21.80;48.00
12426;DHT22;6277;49.824;9.562;2022-08-25T01:36:44;21.80;48.30
12426;DHT22;6277;49.824;9.562;2022-08-25T01:39:11;21.70;48.00
12426;DHT22;6277;49.824;9.562;2022-08-25T01:44:06;21.70;48.80
12426;DHT22;6277;49.824;9.562;2022-08-25T01:46:32;21.70;48.70
12426;DHT22;6277;49.824;9.562;2022-08-25T01:48:59;21.70;48.80
12426;DHT22;6277;49.824;9.562;2022-08-25T01:51:28;21.60;48.90
12426;DHT22;6277;49.824;9.562;2022-08-25T01:53:54;21.60;49.30
12426;DHT22;6277;49.824;9.562;2022-08-25T01:56:20;21.60;49.20
12426;DHT22;6277;49.824;9.562;2022-08-25T01:58:47;21.60;49.30
12426;DHT22;6277;49.824;9.562;2022-08-25T02:01:18;21.60;49.50
12426;DHT22;6277;49.824;9.562;2022-08-25T02:03:46;21.60;50.00
12426;DHT22;6277;49.824;9.562;2022-08-25T02:06:15;21.60;49.80
12426;DHT22;6277;49.824;9.562;2022-08-25T02:08:41;21.60;50.20
12426;DHT22;6277;49.824;9.562;2022-08-25T02:11:12;21.60;50.00
12426;DHT22;6277;49.824;9.562;2022-08-25T02:13:39;21.60;51.00
12426;DHT22;6277;49.824;9.562;2022-08-25T02:16:06;21.60;50.20
12426;DHT22;6277;49.824;9.562;2022-08-25T02:18:32;21.60;50.40
12426;DHT22;6277;49.824;9.562;2022-08-25T02:20:58;21.60;50.40
12426;DHT22;6277;49.824;9.562;2022-08-25T02:23:23;21.60;50.20
12426;DHT22;6277;49.824;9.562;2022-08-25T02:25:49;21.60;50.50
12426;DHT22;6277;49.824;9.562;2022-08-25T02:28:15;21.60;50.60
12426;DHT22;6277;49.824;9.562;2022-08-25T02:30:43;21.50;50.70
12426;DHT22;6277;49.824;9.562;2022-08-25T02:33:09;21.50;50.90
12426;DHT22;6277;49.824;9.562;2022-08-25T02:35:35;21.50;50.80
12426;DHT22;6277;49.824;9.562;2022-08-25T02:38:01;21.50;50.90
12426;DHT22;6277;49.824;9.562;2022-08-25T02:40:27;21.50;50.90
12426;DHT22;6277;49.824;9.562;2022-08-25T02:42:53;21.50;51.10
12426;DHT22;6277;49.824;9.562;2022-08-25T02:45:19;21.50;51.20
12426;DHT22;6277;49.824;9.562;2022-08-25T02:47:46;21.50;52.00
12426;DHT22;6277;49.824;9.562;2022-08-25T02:50:12;21.40;51.40
12426;DHT22;6277;49.824;9.562;2022-08-25T02:52:38;21.50;51.60
12426;DHT22;6277;49.824;9.562;2022-08-25T02:55:07;21.40;51.60
12426;DHT22;6277;49.824;9.562;2022-08-25T02:57:33;21.40;51.90
12426;DHT22;6277;49.824;9.562;2022-08-25T02:59:58;21.40;51.80
12426;DHT22;6277;49.824;9.562;2022-08-25T03:02:26;21.30;51.90
12426;DHT22;6277;49.824;9.562;2022-08-25T03:04:53;21.30;52.00
12426;DHT22;6277;49.824;9.562;2022-08-25T03:07:19;21.40;52.00
12426;DHT22;6277;49.824;9.562;2022-08-25T03:09:45;21.30;51.90
12426;DHT22;6277;49.824;9.562;2022-08-25T03:12:11;21.30;51.90
12426;DHT22;6277;49.824;9.562;2022-08-25T03:14:37;21.30;51.80
12426;DHT22;6277;49.824;9.562;2022-08-25T03:17:04;21.20;51.60
12426;DHT22;6277;49.824;9.562;2022-08-25T03:19:30;21.20;51.70
12426;DHT22;6277;49.824;9.562;2022-08-25T03:21:55;21.20;51.70
12426;DHT22;6277;49.824;9.562;2022-08-25T03:24:22;21.10;51.70
12426;DHT22;6277;49.824;9.562;2022-08-25T03:26:48;21.00;51.70
12426;DHT22;6277;49.824;9.562;2022-08-25T03:29:25;21.00;51.80
12426;DHT22;6277;49.824;9.562;2022-08-25T03:31:53;20.90;52.20
12426;DHT22;6277;49.824;9.562;2022-08-25T03:34:21;20.80;52.20
12426;DHT22;6277;49.824;9.562;2022-08-25T03:36:48;20.80;52.50
12426;DHT22;6277;49.824;9.562;2022-08-25T03:39:16;20.80;52.50
12426;DHT22;6277;49.824;9.562;2022-08-25T03:41:41;20.80;52.50
12426;DHT22;6277;49.824;9.562;2022-08-25T03:44:07;20.70;52.50
12426;DHT22;6277;49.824;9.562;2022-08-25T03:46:38;20.70;52.50
12426;DHT22;6277;49.824;9.562;2022-08-25T03:49:05;20.60;52.90
12426;DHT22;6277;49.824;9.562;2022-08-25T03:51:33;20.60;52.70
12426;DHT22;6277;49.824;9.562;2022-08-25T03:54:01;20.60;52.80
12426;DHT22;6277;49.824;9.562;2022-08-25T03:56:27;20.50;52.80
12426;DHT22;6277;49.824;9.562;2022-08-25T03:58:53;20.40;52.70
12426;DHT22;6277;49.824;9.562;2022-08-25T04:01:19;20.40;52.80
12426;DHT22;6277;49.824;9.562;2022-08-25T04:03:46;20.40;52.80
12426;DHT22;6277;49.824;9.562;2022-08-25T04:06:12;20.30;53.00
12426;DHT22;6277;49.824;9.562;2022-08-25T04:08:38;20.30;53.00
12426;DHT22;6277;49.824;9.562;2022-08-25T04:11:17;20.20;53.00
12426;DHT22;6277;49.824;9.562;2022-08-25T04:13:44;20.20;53.60
12426;DHT22;6277;49.824;9.562;2022-08-25T04:16:13;20.10;53.20
12426;DHT22;6277;49.824;9.562;2022-08-25T04:18:42;20.10;53.40
12426;DHT22;6277;49.824;9.562;2022-08-25T04:21:09;20.10;53.60
12426;DHT22;6277;49.824;9.562;2022-08-25T04:23:37;20.00;53.40
12426;DHT22;6277;49.824;9.562;2022-08-25T04:26:21;20.00;53.60
12426;DHT22;6277;49.824;9.562;2022-08-25T04:28:48;20.00;54.10
12426;DHT22;6277;49.824;9.562;2022-08-25T04:31:14;19.90;53.90
12426;DHT22;6277;49.824;9.562;2022-08-25T04:33:40;19.90;53.90
12426;DHT22;6277;49.824;9.562;2022-08-25T04:36:08;19.90;54.20
12426;DHT22;6277;49.824;9.562;2022-08-25T04:38:36;19.90;54.30
12426;DHT22;6277;49.824;9.562;2022-08-25T04:41:04;19.90;54.30
12426;DHT22;6277;49.824;9.562;2022-08-25T04:43:31;19.90;54.50
12426;DHT22;6277;49.824;9.562;2022-08-25T04:45:58;19.90;54.40
12426;DHT22;6277;49.824;9.562;2022-08-25T04:48:24;19.80;54.30
12426;DHT22;6277;49.824;9.562;2022-08-25T04:50:49;19.80;54.40
12426;DHT22;6277;49.824;9.562;2022-08-25T04:53:16;19.80;54.40
12426;DHT22;6277;49.824;9.562;2022-08-25T04:55:44;19.70;54.50
12426;DHT22;6277;49.824;9.562;2022-08-25T04:58:10;19.70;54.60
12426;DHT22;6277;49.824;9.562;2022-08-25T05:00:37;19.70;54.60
12426;DHT22;6277;49.824;9.562;2022-08-25T05:03:04;19.60;54.70
12426;DHT22;6277;49.824;9.562;2022-08-25T05:05:30;19.60;54.80
12426;DHT22;6277;49.824;9.562;2022-08-25T05:07:56;19.60;54.90
12426;DHT22;6277;49.824;9.562;2022-08-25T05:10:22;19.60;55.00
12426;DHT22;6277;49.824;9.562;2022-08-25T05:12:48;19.60;55.30
12426;DHT22;6277;49.824;9.562;2022-08-25T05:15:14;19.60;55.70
12426;DHT22;6277;49.824;9.562;2022-08-25T05:17:58;19.60;55.80
12426;DHT22;6277;49.824;9.562;2022-08-25T05:20:23;19.70;56.00
12426;DHT22;6277;49.824;9.562;2022-08-25T05:22:49;19.70;56.10
12426;DHT22;6277;49.824;9.562;2022-08-25T05:25:15;19.80;56.30
12426;DHT22;6277;49.824;9.562;2022-08-25T05:27:41;19.80;56.40
12426;DHT22;6277;49.824;9.562;2022-08-25T05:30:08;19.90;56.50
12426;DHT22;6277;49.824;9.562;2022-08-25T05:32:34;20.00;56.70
12426;DHT22;6277;49.824;9.562;2022-08-25T05:35:00;20.00;56.70
12426;DHT22;6277;49.824;9.562;2022-08-25T05:37:25;20.10;56.70
12426;DHT22;6277;49.824;9.562;2022-08-25T05:39:51;20.20;56.80
12426;DHT22;6277;49.824;9.562;2022-08-25T05:42:16;20.30;57.50
12426;DHT22;6277;49.824;9.562;2022-08-25T05:44:42;20.30;57.10
12426;DHT22;6277;49.824;9.562;2022-08-25T05:47:07;20.40;57.20
12426;DHT22;6277;49.824;9.562;2022-08-25T05:49:33;20.60;57.30
12426;DHT22;6277;49.824;9.562;2022-08-25T05:51:58;20.70;57.30
12426;DHT22;6277;49.824;9.562;2022-08-25T05:54:24;20.70;57.30
12426;DHT22;6277;49.824;9.562;2022-08-25T05:56:49;20.80;57.30
12426;DHT22;6277;49.824;9.562;2022-08-25T05:59:15;21.00;57.40
12426;DHT22;6277;49.824;9.562;2022-08-25T06:01:41;21.10;57.30
12426;DHT22;6277;49.824;9.562;2022-08-25T06:04:25;21.20;57.10
12426;DHT22;6277;49.824;9.562;2022-08-25T06:06:50;21.20;56.90
12426;DHT22;6277;49.824;9.562;2022-08-25T06:09:19;21.30;56.90
12426;DHT22;6277;49.824;9.562;2022-08-25T06:11:46;21.40;56.80
12426;DHT22;6277;49.824;9.562;2022-08-25T06:14:12;21.50;56.90
12426;DHT22;6277;49.824;9.562;2022-08-25T06:16:38;21.60;56.80
12426;DHT22;6277;49.824;9.562;2022-08-25T06:19:04;21.60;56.80
12426;DHT22;6277;49.824;9.562;2022-08-25T06:21:30;21.70;56.90
12426;DHT22;6277;49.824;9.562;2022-08-25T06:23:56;21.70;56.90
12426;DHT22;6277;49.824;9.562;2022-08-25T06:26:21;21.80;56.90
12426;DHT22;6277;49.824;9.562;2022-08-25T06:28:51;21.90;56.90
12426;DHT22;6277;49.824;9.562;2022-08-25T06:31:18;22.00;57.00
12426;DHT22;6277;49.824;9.562;2022-08-25T06:33:44;22.00;56.80
12426;DHT22;6277;49.824;9.562;2022-08-25T06:36:09;22.10;56.80
12426;DHT22;6277;49.824;9.562;2022-08-25T06:38:35;22.20;56.80
12426;DHT22;6277;49.824;9.562;2022-08-25T06:41:04;22.20;56.80
12426;DHT22;6277;49.824;9.562;2022-08-25T06:43:32;22.30;56.90
12426;DHT22;6277;49.824;9.562;2022-08-25T06:48:33;22.40;56.80
12426;DHT22;6277;49.824;9.562;2022-08-25T06:50:59;22.50;56.80
12426;DHT22;6277;49.824;9.562;2022-08-25T06:53:24;22.60;56.80
12426;DHT22;6277;49.824;9.562;2022-08-25T06:55:59;22.60;56.70
12426;DHT22;6277;49.824;9.562;2022-08-25T06:58:24;22.70;56.90
12426;DHT22;6277;49.824;9.562;2022-08-25T07:00:51;22.80;57.20
12426;DHT22;6277;49.824;9.562;2022-08-25T07:03:17;22.90;56.70
12426;DHT22;6277;49.824;9.562;2022-08-25T07:05:50;22.90;56.50
12426;DHT22;6277;49.824;9.562;2022-08-25T07:08:16;22.90;56.70
12426;DHT22;6277;49.824;9.562;2022-08-25T07:10:41;23.00;56.50
12426;DHT22;6277;49.824;9.562;2022-08-25T07:13:07;23.10;56.50
12426;DHT22;6277;49.824;9.562;2022-08-25T07:15:37;23.10;56.40
12426;DHT22;6277;49.824;9.562;2022-08-25T07:18:03;23.20;56.60
12426;DHT22;6277;49.824;9.562;2022-08-25T07:20:29;23.20;56.40
12426;DHT22;6277;49.824;9.562;2022-08-25T07:22:56;23.30;56.40
12426;DHT22;6277;49.824;9.562;2022-08-25T07:25:22;23.40;56.50
12426;DHT22;6277;49.824;9.562;2022-08-25T07:27:47;23.40;56.50
12426;DHT22;6277;49.824;9.562;2022-08-25T07:30:13;23.40;56.40
12426;DHT22;6277;49.824;9.562;2022-08-25T07:32:39;23.50;56.40
12426;DHT22;6277;49.824;9.562;2022-08-25T07:35:05;23.60;56.50
12426;DHT22;6277;49.824;9.562;2022-08-25T07:37:43;23.60;56.40
12426;DHT22;6277;49.824;9.562;2022-08-25T07:40:11;23.70;56.40
12426;DHT22;6277;49.824;9.562;2022-08-25T07:42:38;23.80;56.40
12426;DHT22;6277;49.824;9.562;2022-08-25T07:45:05;23.80;56.30
12426;DHT22;6277;49.824;9.562;2022-08-25T07:47:31;23.90;56.30
12426;DHT22;6277;49.824;9.562;2022-08-25T07:49:57;24.00;56.30
12426;DHT22;6277;49.824;9.562;2022-08-25T07:52:23;24.00;56.30
12426;DHT22;6277;49.824;9.562;2022-08-25T07:54:48;24.10;56.20
12426;DHT22;6277;49.824;9.562;2022-08-25T07:57:14;24.10;56.20
12426;DHT22;6277;49.824;9.562;2022-08-25T07:59:41;24.20;56.20
12426;DHT22;6277;49.824;9.562;2022-08-25T08:02:08;24.30;56.20
12426;DHT22;6277;49.824;9.562;2022-08-25T08:04:35;24.40;56.20
12426;DHT22;6277;49.824;9.562;2022-08-25T08:07:01;24.50;56.10
12426;DHT22;6277;49.824;9.562;2022-08-25T08:09:27;24.50;56.00
12426;DHT22;6277;49.824;9.562;2022-08-25T08:11:55;24.60;56.00
12426;DHT22;6277;49.824;9.562;2022-08-25T08:14:22;24.60;55.90
12426;DHT22;6277;49.824;9.562;2022-08-25T08:16:47;24.70;55.80
12426;DHT22;6277;49.824;9.562;2022-08-25T08:19:14;24.80;55.90
12426;DHT22;6277;49.824;9.562;2022-08-25T08:21:40;24.80;55.80
12426;DHT22;6277;49.824;9.562;2022-08-25T08:24:06;24.80;55.70
12426;DHT22;6277;49.824;9.562;2022-08-25T08:26:32;24.90;55.70
12426;DHT22;6277;49.824;9.562;2022-08-25T08:28:58;25.00;55.80
12426;DHT22;6277;49.824;9.562;2022-08-25T08:31:25;25.10;55.70
12426;DHT22;6277;49.824;9.562;2022-08-25T08:33:52;25.20;55.70
12426;DHT22;6277;49.824;9.562;2022-08-25T08:36:19;25.30;55.60
12426;DHT22;6277;49.824;9.562;2022-08-25T08:38:47;25.40;55.60
12426;DHT22;6277;49.824;9.562;2022-08-25T08:44:23;25.50;55.50
12426;DHT22;6277;49.824;9.562;2022-08-25T08:49:48;25.70;55.30
12426;DHT22;6277;49.824;9.562;2022-08-25T08:52:17;25.70;55.20
12426;DHT22;6277;49.824;9.562;2022-08-25T08:54:45;25.90;55.50
12426;DHT22;6277;49.824;9.562;2022-08-25T08:57:18;25.90;55.10
12426;DHT22;6277;49.824;9.562;2022-08-25T08:59:50;26.00;54.90
12426;DHT22;6277;49.824;9.562;2022-08-25T09:02:28;26.10;54.90
12426;DHT22;6277;49.824;9.562;2022-08-25T09:05:00;26.20;54.90
12426;DHT22;6277;49.824;9.562;2022-08-25T09:08:02;26.20;54.80
12426;DHT22;6277;49.824;9.562;2022-08-25T09:10:38;26.30;54.80
12426;DHT22;6277;49.824;9.562;2022-08-25T09:13:26;26.50;54.70
12426;DHT22;6277;49.824;9.562;2022-08-25T09:16:08;26.60;54.50
12426;DHT22;6277;49.824;9.562;2022-08-25T09:25:14;26.90;54.30
12426;DHT22;6277;49.824;9.562;2022-08-25T09:30:37;27.10;53.90
12426;DHT22;6277;49.824;9.562;2022-08-25T09:33:06;27.20;54.00
12426;DHT22;6277;49.824;9.562;2022-08-25T09:35:40;27.30;54.00
12426;DHT22;6277;49.824;9.562;2022-08-25T09:38:09;27.50;53.50
12426;DHT22;6277;49.824;9.562;2022-08-25T09:40:41;27.60;53.60
12426;DHT22;6277;49.824;9.562;2022-08-25T09:48:32;27.90;52.80
12426;DHT22;6277;49.824;9.562;2022-08-25T09:54:02;28.20;52.50
12426;DHT22;6277;49.824;9.562;2022-08-25T09:56:31;28.40;52.50
12426;DHT22;6277;49.824;9.562;2022-08-25T09:59:23;28.60;52.60
12426;DHT22;6277;49.824;9.562;2022-08-25T10:01:51;28.90;52.20
12426;DHT22;6277;49.824;9.562;2022-08-25T10:04:34;29.10;52.00
12426;DHT22;6277;49.824;9.562;2022-08-25T10:07:39;29.30;51.10
12426;DHT22;6277;49.824;9.562;2022-08-25T10:10:15;29.50;50.90
12426;DHT22;6277;49.824;9.562;2022-08-25T10:12:44;29.70;50.70
12426;DHT22;6277;49.824;9.562;2022-08-25T10:17:42;30.10;49.90
12426;DHT22;6277;49.824;9.562;2022-08-25T10:22:40;30.30;49.70
12426;DHT22;6277;49.824;9.562;2022-08-25T10:25:13;30.40;49.40
12426;DHT22;6277;49.824;9.562;2022-08-25T10:33:09;30.60;48.90
12426;DHT22;6277;49.824;9.562;2022-08-25T10:38:37;30.80;48.30
12426;DHT22;6277;49.824;9.562;2022-08-25T10:41:39;30.80;48.30
12426;DHT22;6277;49.824;9.562;2022-08-25T10:44:23;31.00;47.80
12426;DHT22;6277;49.824;9.562;2022-08-25T10:50:21;31.10;47.60
12426;DHT22;6277;49.824;9.562;2022-08-25T10:55:47;31.10;46.50
12426;DHT22;6277;49.824;9.562;2022-08-25T11:00:52;31.20;47.40
12426;DHT22;6277;49.824;9.562;2022-08-25T11:03:46;31.20;45.90
12426;DHT22;6277;49.824;9.562;2022-08-25T11:06:48;31.30;45.70
12426;DHT22;6277;49.824;9.562;2022-08-25T11:09:19;31.30;45.90
12426;DHT22;6277;49.824;9.562;2022-08-25T11:12:09;31.40;45.80
12426;DHT22;6277;49.824;9.562;2022-08-25T11:14:40;31.50;45.80
12426;DHT22;6277;49.824;9.562;2022-08-25T11:17:14;31.50;45.60
12426;DHT22;6277;49.824;9.562;2022-08-25T11:19:46;31.50;45.30
12426;DHT22;6277;49.824;9.562;2022-08-25T11:22:20;31.60;45.10
12426;DHT22;6277;49.824;9.562;2022-08-25T11:30:26;31.60;44.80
12426;DHT22;6277;49.824;9.562;2022-08-25T11:32:53;31.70;45.00
12426;DHT22;6277;49.824;9.562;2022-08-25T11:35:28;31.70;44.70
12426;DHT22;6277;49.824;9.562;2022-08-25T11:37:59;31.70;44.50
12426;DHT22;6277;49.824;9.562;2022-08-25T11:40:37;31.80;44.90
12426;DHT22;6277;49.824;9.562;2022-08-25T11:43:28;31.90;44.70
12426;DHT22;6277;49.824;9.562;2022-08-25T11:51:51;32.30;43.80
12426;DHT22;6277;49.824;9.562;2022-08-25T11:54:23;32.50;43.70
12426;DHT22;6277;49.824;9.562;2022-08-25T11:57:39;32.60;43.80
12426;DHT22;6277;49.824;9.562;2022-08-25T12:02:30;32.80;42.80
12426;DHT22;6277;49.824;9.562;2022-08-25T12:04:57;32.90;42.60
12426;DHT22;6277;49.824;9.562;2022-08-25T12:07:25;33.00;42.80
12426;DHT22;6277;49.824;9.562;2022-08-25T12:15:22;33.20;41.70
12426;DHT22;6277;49.824;9.562;2022-08-25T12:23:26;33.20;41.10
12426;DHT22;6277;49.824;9.562;2022-08-25T12:25:53;33.20;42.10
12426;DHT22;6277;49.824;9.562;2022-08-25T12:30:59;33.20;40.60
12426;DHT22;6277;49.824;9.562;2022-08-25T12:33:46;33.20;40.60
12426;DHT22;6277;49.824;9.562;2022-08-25T12:36:31;33.20;41.10
12426;DHT22;6277;49.824;9.562;2022-08-25T12:42:01;33.30;40.10
12426;DHT22;6277;49.824;9.562;2022-08-25T12:45:06;33.20;40.10
12426;DHT22;6277;49.824;9.562;2022-08-25T12:49:44;33.30;40.30
12426;DHT22;6277;49.824;9.562;2022-08-25T12:52:14;33.30;40.30
12426;DHT22;6277;49.824;9.562;2022-08-25T12:54:56;33.30;40.10
12426;DHT22;6277;49.824;9.562;2022-08-25T12:57:42;33.30;39.60
12426;DHT22;6277;49.824;9.562;2022-08-25T13:00:31;33.30;39.50
12426;DHT22;6277;49.824;9.562;2022-08-25T13:03:35;33.20;39.30
12426;DHT22;6277;49.824;9.562;2022-08-25T13:12:07;33.00;39.30
12426;DHT22;6277;49.824;9.562;2022-08-25T13:14:37;33.00;39.30
12426;DHT22;6277;49.824;9.562;2022-08-25T13:17:03;32.90;39.30
12426;DHT22;6277;49.824;9.562;2022-08-25T13:19:29;32.90;39.60
12426;DHT22;6277;49.824;9.562;2022-08-25T13:21:57;32.90;39.60
12426;DHT22;6277;49.824;9.562;2022-08-25T13:24:29;33.00;39.40
12426;DHT22;6277;49.824;9.562;2022-08-25T13:26:59;33.00;39.20
12426;DHT22;6277;49.824;9.562;2022-08-25T13:29:28;33.10;39.30
12426;DHT22;6277;49.824;9.562;2022-08-25T13:32:05;33.10;39.80
12426;DHT22;6277;49.824;9.562;2022-08-25T13:34:34;33.20;39.30
12426;DHT22;6277;49.824;9.562;2022-08-25T13:37:14;33.30;39.20
12426;DHT22;6277;49.824;9.562;2022-08-25T13:40:23;33.40;39.10
12426;DHT22;6277;49.824;9.562;2022-08-25T13:42:52;33.60;38.90
12426;DHT22;6277;49.824;9.562;2022-08-25T13:45:24;33.70;38.80
12426;DHT22;6277;49.824;9.562;2022-08-25T13:47:50;33.80;38.70
12426;DHT22;6277;49.824;9.562;2022-08-25T13:55:25;34.10;38.10
12426;DHT22;6277;49.824;9.562;2022-08-25T13:57:52;34.20;38.10
12426;DHT22;6277;49.824;9.562;2022-08-25T14:00:45;34.30;38.10
12426;DHT22;6277;49.824;9.562;2022-08-25T14:03:31;34.50;38.00
12426;DHT22;6277;49.824;9.562;2022-08-25T14:06:22;34.70;37.90
12426;DHT22;6277;49.824;9.562;2022-08-25T14:11:27;35.20;37.90
12426;DHT22;6277;49.824;9.562;2022-08-25T14:14:02;35.40;37.20
12426;DHT22;6277;49.824;9.562;2022-08-25T14:16:31;35.70;36.80
12426;DHT22;6277;49.824;9.562;2022-08-25T14:18:57;35.80;36.60
12426;DHT22;6277;49.824;9.562;2022-08-25T14:21:27;36.00;36.40
12426;DHT22;6277;49.824;9.562;2022-08-25T14:23:53;36.10;36.10
12426;DHT22;6277;49.824;9.562;2022-08-25T14:26:20;36.10;36.10
12426;DHT22;6277;49.824;9.562;2022-08-25T14:28:45;36.10;35.70
12426;DHT22;6277;49.824;9.562;2022-08-25T14:31:25;36.20;35.60
12426;DHT22;6277;49.824;9.562;2022-08-25T14:33:58;36.20;35.30
12426;DHT22;6277;49.824;9.562;2022-08-25T14:36:24;36.20;35.30
12426;DHT22;6277;49.824;9.562;2022-08-25T14:38:50;36.20;35.40
12426;DHT22;6277;49.824;9.562;2022-08-25T14:41:18;36.30;35.10
12426;DHT22;6277;49.824;9.562;2022-08-25T14:43:44;36.40;35.20
12426;DHT22;6277;49.824;9.562;2022-08-25T14:46:20;36.40;35.00
12426;DHT22;6277;49.824;9.562;2022-08-25T14:48:49;36.50;34.60
12426;DHT22;6277;49.824;9.562;2022-08-25T14:51:18;36.70;34.80
12426;DHT22;6277;49.824;9.562;2022-08-25T14:53:44;36.80;34.50
12426;DHT22;6277;49.824;9.562;2022-08-25T14:56:10;36.90;34.30
12426;DHT22;6277;49.824;9.562;2022-08-25T14:58:36;37.00;34.10
12426;DHT22;6277;49.824;9.562;2022-08-25T15:01:05;37.00;33.60
12426;DHT22;6277;49.824;9.562;2022-08-25T15:03:39;36.90;33.30
12426;DHT22;6277;49.824;9.562;2022-08-25T15:06:07;36.80;32.90
12426;DHT22;6277;49.824;9.562;2022-08-25T15:08:35;36.60;33.30
12426;DHT22;6277;49.824;9.562;2022-08-25T15:11:19;36.50;33.50
12426;DHT22;6277;49.824;9.562;2022-08-25T15:13:45;36.40;33.60
12426;DHT22;6277;49.824;9.562;2022-08-25T15:16:26;36.40;33.90
12426;DHT22;6277;49.824;9.562;2022-08-25T15:18:52;36.60;33.70
12426;DHT22;6277;49.824;9.562;2022-08-25T15:21:18;36.80;34.10
12426;DHT22;6277;49.824;9.562;2022-08-25T15:23:43;37.00;33.90
12426;DHT22;6277;49.824;9.562;2022-08-25T15:26:11;37.30;33.80
12426;DHT22;6277;49.824;9.562;2022-08-25T15:28:40;37.60;33.60
12426;DHT22;6277;49.824;9.562;2022-08-25T15:31:06;37.90;33.20
12426;DHT22;6277;49.824;9.562;2022-08-25T15:33:32;38.20;33.20
12426;DHT22;6277;49.824;9.562;2022-08-25T15:35:57;38.50;33.20
12426;DHT22;6277;49.824;9.562;2022-08-25T15:38:23;38.80;33.00
12426;DHT22;6277;49.824;9.562;2022-08-25T15:40:49;39.00;32.50
12426;DHT22;6277;49.824;9.562;2022-08-25T15:43:15;39.30;32.40
12426;DHT22;6277;49.824;9.562;2022-08-25T15:45:41;39.60;32.00
12426;DHT22;6277;49.824;9.562;2022-08-25T15:48:06;39.90;31.60
12426;DHT22;6277;49.824;9.562;2022-08-25T15:50:32;40.00;31.20
12426;DHT22;6277;49.824;9.562;2022-08-25T15:52:58;40.20;31.10
12426;DHT22;6277;49.824;9.562;2022-08-25T15:55:23;40.30;30.80
12426;DHT22;6277;49.824;9.562;2022-08-25T15:57:49;40.50;30.60
12426;DHT22;6277;49.824;9.562;2022-08-25T16:00:16;40.70;30.30
12426;DHT22;6277;49.824;9.562;2022-08-25T16:02:41;40.80;30.30
12426;DHT22;6277;49.824;9.562;2022-08-25T16:05:08;41.00;29.90
12426;DHT22;6277;49.824;9.562;2022-08-25T16:07:35;41.20;30.00
12426;DHT22;6277;49.824;9.562;2022-08-25T16:10:01;41.40;29.90
12426;DHT22;6277;49.824;9.562;2022-08-25T16:12:26;41.50;29.50
12426;DHT22;6277;49.824;9.562;2022-08-25T16:14:52;41.60;29.40
12426;DHT22;6277;49.824;9.562;2022-08-25T16:17:18;41.80;29.20
12426;DHT22;6277;49.824;9.562;2022-08-25T16:19:44;41.80;28.90
12426;DHT22;6277;49.824;9.562;2022-08-25T16:22:10;41.60;28.70
12426;DHT22;6277;49.824;9.562;2022-08-25T16:24:40;41.60;28.60
12426;DHT22;6277;49.824;9.562;2022-08-25T16:27:09;41.40;28.40
12426;DHT22;6277;49.824;9.562;2022-08-25T16:29:36;41.30;28.50
12426;DHT22;6277;49.824;9.562;2022-08-25T16:32:04;41.20;28.40
12426;DHT22;6277;49.824;9.562;2022-08-25T16:34:30;41.00;28.20
12426;DHT22;6277;49.824;9.562;2022-08-25T16:36:56;40.70;28.50
12426;DHT22;6277;49.824;9.562;2022-08-25T16:39:21;40.30;28.00
12426;DHT22;6277;49.824;9.562;2022-08-25T16:41:47;39.90;28.00
12426;DHT22;6277;49.824;9.562;2022-08-25T16:44:13;39.50;28.10
12426;DHT22;6277;49.824;9.562;2022-08-25T16:46:39;39.20;28.30
12426;DHT22;6277;49.824;9.562;2022-08-25T16:49:07;38.90;28.50
12426;DHT22;6277;49.824;9.562;2022-08-25T16:51:33;38.60;28.50
12426;DHT22;6277;49.824;9.562;2022-08-25T16:54:00;38.40;28.50
12426;DHT22;6277;49.824;9.562;2022-08-25T16:56:44;38.10;28.50
12426;DHT22;6277;49.824;9.562;2022-08-25T16:59:11;37.80;28.60
12426;DHT22;6277;49.824;9.562;2022-08-25T17:01:39;37.50;28.70
12426;DHT22;6277;49.824;9.562;2022-08-25T17:04:06;37.20;28.90
12426;DHT22;6277;49.824;9.562;2022-08-25T17:06:40;37.00;28.90
12426;DHT22;6277;49.824;9.562;2022-08-25T17:09:08;36.80;29.10
12426;DHT22;6277;49.824;9.562;2022-08-25T17:11:39;36.50;29.20
12426;DHT22;6277;49.824;9.562;2022-08-25T17:14:08;36.30;29.30
12426;DHT22;6277;49.824;9.562;2022-08-25T17:16:34;36.10;29.40
12426;DHT22;6277;49.824;9.562;2022-08-25T17:19:02;36.00;29.60
12426;DHT22;6277;49.824;9.562;2022-08-25T17:21:32;35.90;29.90
12426;DHT22;6277;49.824;9.562;2022-08-25T17:23:59;35.80;30.10
12426;DHT22;6277;49.824;9.562;2022-08-25T17:26:26;35.60;30.10
12426;DHT22;6277;49.824;9.562;2022-08-25T17:28:52;35.50;30.20
12426;DHT22;6277;49.824;9.562;2022-08-25T17:31:18;35.40;30.30
12426;DHT22;6277;49.824;9.562;2022-08-25T17:33:44;35.30;30.50
12426;DHT22;6277;49.824;9.562;2022-08-25T17:36:10;35.20;30.80
12426;DHT22;6277;49.824;9.562;2022-08-25T17:38:37;35.10;30.90